createdAt,value
2023-01-13T00:02:28.537Z,100037.94
2023-01-13T00:05:29.901Z,100038.78
2023-01-13T00:08:33.911Z,100039.28
2023-01-13T00:11:35.276Z,100040.09
2023-01-13T00:14:37.867Z,100042.00
2023-01-13T00:17:40.519Z,100041.16
2023-01-13T00:20:41.826Z,100040.66
2023-01-13T00:23:45.888Z,100042.31
2023-01-13T00:26:47.424Z,100023.66
2023-01-13T00:29:50.353Z,100039.59
2023-01-13T00:32:52.391Z,100037.66
2023-01-13T00:35:58.393Z,100037.66
2023-01-13T00:39:01.795Z,100034.06
2023-01-13T00:42:21.330Z,100029.16
2023-01-13T00:45:23.945Z,100031.56
2023-01-13T00:48:27.022Z,100034.88
2023-01-13T00:51:29.636Z,100023.63
2023-01-13T00:54:32.928Z,100031.06
2023-01-13T00:57:35.648Z,100028.28
2023-01-13T01:00:37.032Z,100028.31
2023-01-13T01:03:39.731Z,100030.28
2023-01-13T01:06:42.332Z,100030.22
2023-01-13T01:09:44.385Z,100030.47
2023-01-13T01:12:46.969Z,100033.22
2023-01-13T01:15:50.156Z,100031.66
2023-01-13T01:18:54.445Z,100030.25
2023-01-13T01:21:55.850Z,100037.13
2023-01-13T01:24:59.411Z,100025.03
2023-01-13T01:28:00.788Z,100029.97
2023-01-13T01:31:07.338Z,100038.50
2023-01-13T01:34:08.753Z,100034.41
2023-01-13T01:37:11.349Z,100028.09
2023-01-13T01:44:03.061Z,100026.72
2023-01-13T01:47:05.882Z,100021.53
2023-01-13T01:50:10.702Z,100027.53
2023-01-13T01:53:18.264Z,100026.41
2023-01-13T01:56:22.118Z,100020.69
2023-01-13T01:59:25.854Z,100016.59
2023-01-13T02:02:29.199Z,100017.94
2023-01-13T02:05:30.572Z,100019.34
2023-01-13T02:08:33.989Z,100011.63
2023-01-13T02:11:56.115Z,100011.09
2023-01-13T02:15:00.662Z,100008.91
2023-01-13T02:18:41.645Z,99997.38
2023-01-13T02:22:18.828Z,99995.47
2023-01-13T02:25:50.294Z,100006.44
2023-01-13T02:29:32.629Z,100006.69
2023-01-13T02:32:48.130Z,100003.94
2023-01-13T02:35:56.779Z,99983.16
2023-01-13T02:39:14.992Z,99996.00
2023-01-13T02:42:46.226Z,99989.13
2023-01-13T02:45:52.346Z,99989.72
2023-01-13T02:48:57.947Z,99981.22
2023-01-13T02:52:07.560Z,99985.59
2023-01-13T02:55:13.479Z,99978.72
2023-01-13T02:58:19.017Z,99986.41
2023-01-13T03:01:22.358Z,99980.09
2023-01-13T03:08:23.101Z,99955.44
2023-01-13T03:11:31.907Z,99956.00
2023-01-13T03:14:40.064Z,99962.00
2023-01-13T03:17:50.689Z,99964.47
2023-01-13T03:21:02.744Z,99961.47
2023-01-13T03:24:10.251Z,99972.16
2023-01-13T03:27:20.479Z,99968.31
2023-01-13T03:30:27.034Z,99968.59
2023-01-13T03:33:36.572Z,99966.94
2023-01-13T03:40:08.886Z,99959.00
2023-01-13T03:43:35.141Z,99952.72
2023-01-13T03:46:45.270Z,99962.03
2023-01-13T03:49:55.311Z,99965.34
2023-01-13T03:53:03.770Z,99963.97
2023-01-13T03:56:09.599Z,99958.72
2023-01-13T04:02:47.468Z,99957.66
2023-01-13T04:05:54.023Z,99957.66
2023-01-13T04:09:07.428Z,99957.38
2023-01-13T04:12:13.955Z,99952.72
2023-01-13T04:15:17.495Z,99956.53
2023-01-13T04:18:21.750Z,99945.31
2023-01-13T04:21:24.315Z,99961.75
2023-01-13T04:24:26.587Z,99956.28
2023-01-13T04:27:29.107Z,99952.16
2023-01-13T04:30:32.278Z,99966.13
2023-01-13T04:36:54.466Z,99960.91
2023-01-13T04:39:57.594Z,99960.06
2023-01-13T04:42:58.943Z,99965.28
2023-01-13T04:46:00.720Z,99959.53
2023-01-13T04:49:02.077Z,99962.50
2023-01-13T04:52:06.239Z,99977.84
2023-01-13T04:55:10.347Z,99970.19
2023-01-13T04:58:11.906Z,99986.09
2023-01-13T05:01:14.646Z,99982.81
2023-01-13T05:04:16.363Z,99987.19
2023-01-13T05:07:24.774Z,99989.69
2023-01-13T05:10:27.775Z,99998.44
2023-01-13T05:13:58.888Z,100008.59
2023-01-13T05:17:01.585Z,100006.94
2023-01-13T05:20:03.294Z,100014.06
2023-01-13T05:23:23.644Z,100023.41
2023-01-13T05:26:26.244Z,100014.06
2023-01-13T05:29:27.532Z,100010.75
2023-01-13T05:32:30.077Z,100010.53
2023-01-13T05:35:31.425Z,100032.59
2023-01-13T05:38:33.028Z,100035.38
2023-01-13T05:41:54.015Z,100035.84
2023-01-13T05:44:55.663Z,100034.34
2023-01-13T05:47:57.321Z,100032.38
2023-01-13T05:50:59.255Z,100046.59
2023-01-13T05:54:01.886Z,100050.31
2023-01-13T05:57:05.485Z,100051.78
2023-01-13T06:00:08.072Z,100053.34
2023-01-13T06:03:11.344Z,100055.28
2023-01-13T06:06:12.870Z,100041.59
2023-01-13T06:09:16.520Z,100042.16
2023-01-13T06:12:18.943Z,100031.00
2023-01-13T06:15:20.922Z,100041.44
2023-01-13T06:18:22.538Z,100028.25
2023-01-13T06:21:23.897Z,100023.41
2023-01-13T06:24:26.487Z,100017.94
2023-01-13T06:27:29.294Z,100016.78
2023-01-13T06:30:37.726Z,100026.34
2023-01-13T06:33:46.212Z,100040.28
2023-01-13T06:36:54.971Z,100047.94
2023-01-13T06:40:00.977Z,100045.22
2023-01-13T06:43:16.924Z,100032.38
2023-01-13T06:46:20.157Z,100018.69
2023-01-13T06:49:21.810Z,100008.00
2023-01-13T06:52:24.940Z,100006.38
2023-01-13T06:55:26.274Z,100020.31
2023-01-13T06:58:28.258Z,100023.88
2023-01-13T07:01:30.050Z,100020.84
2023-01-13T07:04:31.477Z,100028.25
2023-01-13T07:07:33.187Z,100037.03
2023-01-13T07:10:35.790Z,100028.81
2023-01-13T07:17:28.968Z,99984.25
2023-01-13T07:20:31.974Z,100033.75
2023-01-13T07:23:35.955Z,100006.13
2023-01-13T07:26:38.643Z,100019.25
2023-01-13T07:29:40.825Z,100028.84
2023-01-13T07:32:42.492Z,100022.84
2023-01-13T07:35:45.223Z,100015.19
2023-01-13T07:38:46.626Z,100013.53
2023-01-13T07:42:07.599Z,100009.72
2023-01-13T07:45:12.391Z,100029.41
2023-01-13T07:48:15.111Z,100035.97
2023-01-13T07:51:16.625Z,100040.34
2023-01-13T07:54:25.545Z,100027.25
2023-01-13T07:57:34.546Z,100026.97
2023-01-13T08:00:38.980Z,100029.75
2023-01-13T08:03:41.922Z,100045.09
2023-01-13T08:06:45.151Z,100045.97
2023-01-13T08:09:47.012Z,100063.72
2023-01-13T08:13:18.392Z,100073.31
2023-01-13T08:16:22.196Z,100059.69
2023-01-13T08:19:25.563Z,100081.03
2023-01-13T08:22:30.441Z,100074.78
2023-01-13T08:25:36.800Z,100060.25
2023-01-13T08:28:49.199Z,100046.28
2023-01-13T08:31:52.363Z,100069.25
2023-01-13T08:34:57.456Z,100077.50
2023-01-13T08:37:59.364Z,100076.94
2023-01-13T08:41:12.463Z,100087.47
2023-01-13T08:44:15.356Z,100056.94
2023-01-13T08:47:18.766Z,100083.50
2023-01-13T08:50:20.625Z,100094.72
2023-01-13T08:53:22.481Z,100104.56
2023-01-13T08:56:25.536Z,100098.00
2023-01-13T08:59:27.086Z,100098.00
2023-01-13T09:02:31.528Z,100090.59
2023-01-13T09:05:35.225Z,100043.34
2023-01-13T09:08:38.109Z,100060.03
2023-01-13T09:12:00.872Z,100035.97
2023-01-13T09:15:12.618Z,100036.66
2023-01-13T09:18:15.049Z,100057.69
2023-01-13T09:21:24.488Z,100082.66
2023-01-13T09:24:26.719Z,100069.56
2023-01-13T09:27:30.129Z,100073.72
2023-01-13T09:30:33.269Z,100091.81
2023-01-13T09:33:56.061Z,100093.41
2023-01-13T09:36:57.587Z,100092.34
2023-01-13T09:40:00.476Z,100089.38
2023-01-13T09:43:30.827Z,100073.50
2023-01-13T09:46:47.674Z,100057.88
2023-01-13T09:49:50.410Z,100074.41
2023-01-13T09:52:54.640Z,100079.41
2023-01-13T09:55:56.211Z,100085.19
2023-01-13T09:58:59.167Z,100078.59
2023-01-13T10:02:14.222Z,100093.66
2023-01-13T10:05:27.886Z,100097.78
2023-01-13T10:08:33.657Z,100104.66
2023-01-13T10:12:00.361Z,100099.97
2023-01-13T10:15:03.094Z,100101.03
2023-01-13T10:18:16.852Z,100095.53
2023-01-13T10:21:33.205Z,100090.63
2023-01-13T10:24:53.297Z,100091.72
2023-01-13T10:27:56.363Z,100084.06
2023-01-13T10:30:59.572Z,100092.88
2023-01-13T10:34:03.528Z,100092.88
2023-01-13T10:37:07.203Z,100093.69
2023-01-13T10:40:19.336Z,100094.78
2023-01-13T10:43:21.297Z,100091.47
2023-01-13T10:46:23.074Z,100094.19
2023-01-13T10:49:28.896Z,100091.97
2023-01-13T10:52:34.352Z,100088.69
2023-01-13T10:55:38.592Z,100086.50
2023-01-13T10:58:40.388Z,100087.34
2023-01-13T11:01:55.287Z,100090.09
2023-01-13T11:05:03.309Z,100095.28
2023-01-13T11:08:17.845Z,100095.88
2023-01-13T11:11:36.571Z,100089.28
2023-01-13T11:14:42.644Z,100086.66
2023-01-13T11:17:50.567Z,100093.59
2023-01-13T11:20:56.121Z,100090.13
2023-01-13T11:24:07.256Z,100091.22
2023-01-13T11:27:18.521Z,100086.47
2023-01-13T11:30:34.405Z,100085.47
2023-01-13T11:37:10.992Z,100092.78
2023-01-13T11:40:18.503Z,100089.16
2023-01-13T11:43:29.023Z,100096.66
2023-01-13T11:46:31.925Z,100098.06
2023-01-13T11:49:33.814Z,100091.16
2023-01-13T11:53:00.853Z,100105.13
2023-01-13T11:56:19.320Z,100096.06
2023-01-13T11:59:45.088Z,100100.63
2023-01-13T12:03:05.652Z,100088.44
2023-01-13T12:06:25.340Z,100101.22
2023-01-13T12:09:43.812Z,100101.28
2023-01-13T12:13:01.341Z,100100.53
2023-01-13T12:16:25.036Z,100099.84
2023-01-13T12:19:29.454Z,100092.09
2023-01-13T12:22:36.845Z,100087.19
2023-01-13T12:25:53.999Z,100088.41
2023-01-13T12:29:01.941Z,100101.03
2023-01-13T12:32:07.541Z,100098.47
2023-01-13T12:35:31.491Z,100106.22
2023-01-13T12:38:37.960Z,100099.88
2023-01-13T12:42:05.013Z,100096.41
2023-01-13T12:45:22.674Z,100101.03
2023-01-13T12:48:49.564Z,100101.38
2023-01-13T12:52:28.233Z,100099.97
2023-01-13T12:55:33.001Z,100108.22
2023-01-13T13:02:32.476Z,100098.59
2023-01-13T13:05:48.145Z,100110.72
2023-01-13T13:09:03.941Z,100112.66
2023-01-13T13:13:09.361Z,100121.69
2023-01-13T13:16:52.349Z,100121.41
2023-01-13T13:20:34.361Z,100123.59
2023-01-13T13:23:55.376Z,100117.84
2023-01-13T13:26:57.050Z,100127.97
2023-01-13T13:30:01.335Z,100130.44
2023-01-13T13:33:16.378Z,100139.50
2023-01-13T13:36:44.929Z,100137.56
2023-01-13T13:40:04.651Z,100142.00
2023-01-13T13:43:30.679Z,100140.09
2023-01-13T13:46:50.545Z,100152.69
2023-01-13T13:49:54.958Z,100138.13
2023-01-13T13:53:04.562Z,100145.56
2023-01-13T13:56:20.219Z,100141.16
2023-01-13T13:59:25.028Z,100142.25
2023-01-13T14:02:33.719Z,100140.03
2023-01-13T14:05:38.774Z,100152.94
2023-01-13T14:08:49.678Z,100158.44
2023-01-13T14:12:00.324Z,100163.25
2023-01-13T14:15:03.605Z,100157.53
2023-01-13T14:18:12.026Z,100162.97
2023-01-13T14:21:21.372Z,100161.66
2023-01-13T14:24:24.322Z,100159.19
2023-01-13T14:27:28.054Z,100155.03
2023-01-13T14:30:29.523Z,100165.22
2023-01-13T14:36:59.222Z,100173.41
2023-01-13T14:40:03.180Z,100170.13
2023-01-13T14:43:12.694Z,100162.09
2023-01-13T14:46:16.828Z,100172.56
2023-01-13T14:49:25.242Z,100170.34
2023-01-13T14:52:29.453Z,100169.22
2023-01-13T14:55:33.173Z,100176.41
2023-01-13T14:58:34.715Z,100172.81
2023-01-13T15:01:38.628Z,100171.16
2023-01-13T15:04:40.950Z,100175.31
2023-01-13T15:07:50.059Z,100174.50
2023-01-13T15:10:54.897Z,100183.22
2023-01-13T15:14:01.726Z,100175.22
2023-01-13T15:17:17.765Z,100179.84
2023-01-13T15:20:21.327Z,100182.94
2023-01-13T15:23:23.020Z,100188.34
2023-01-13T15:26:27.300Z,100189.19
2023-01-13T15:29:29.162Z,100184.81
2023-01-13T15:32:30.477Z,100189.19
2023-01-13T15:35:42.400Z,100187.53
2023-01-13T15:38:43.734Z,100191.31
2023-01-13T15:42:03.898Z,100185.03
2023-01-13T15:45:24.336Z,100196.50
2023-01-13T15:48:28.445Z,100196.03
2023-01-13T15:51:30.995Z,100202.53
2023-01-13T15:54:32.802Z,100200.69
2023-01-13T15:57:38.876Z,100201.78
2023-01-13T16:00:41.010Z,100193.50
2023-01-13T16:03:43.744Z,100203.63
2023-01-13T16:06:47.889Z,100203.41
2023-01-13T16:09:49.377Z,100205.22
2023-01-13T16:12:53.239Z,100224.66
2023-01-13T16:15:56.670Z,100220.63
2023-01-13T16:18:59.586Z,100228.72
2023-01-13T16:22:00.904Z,100228.63
2023-01-13T16:25:03.570Z,100229.47
2023-01-13T16:28:07.499Z,100234.97
2023-01-13T16:31:18.086Z,100238.22
2023-01-13T16:37:40.504Z,100239.78
2023-01-13T16:40:43.699Z,100255.16
2023-01-13T16:43:46.267Z,100247.78
2023-01-13T16:46:47.970Z,100253.56
2023-01-13T16:49:49.645Z,100254.28
2023-01-13T16:52:50.912Z,100262.22
2023-01-13T16:55:52.371Z,100267.44
2023-01-13T16:58:57.210Z,100267.84
2023-01-13T17:01:58.689Z,100264.16
2023-01-13T17:05:01.267Z,100279.94
2023-01-13T17:08:02.685Z,100277.63
2023-01-13T17:11:05.576Z,100278.97
2023-01-13T17:14:19.199Z,100285.38
2023-01-13T17:17:24.988Z,100294.41
2023-01-13T17:20:27.772Z,100294.41
2023-01-13T17:23:30.694Z,100296.00
2023-01-13T17:26:37.609Z,100297.88
2023-01-13T17:29:40.981Z,100288.47
2023-01-13T17:32:42.289Z,100302.25
2023-01-13T17:35:46.492Z,100307.38
2023-01-13T17:38:48.095Z,100305.09
2023-01-13T17:41:51.585Z,100317.66
2023-01-13T17:44:53.694Z,100314.28
2023-01-13T17:47:58.428Z,100308.50
2023-01-13T17:51:01.150Z,100324.81
2023-01-13T17:54:02.471Z,100312.03
2023-01-13T17:57:05.104Z,100316.72
2023-01-13T18:00:08.674Z,100313.50
2023-01-13T18:03:11.792Z,100316.84
2023-01-13T18:06:15.963Z,100341.75
2023-01-13T18:09:18.766Z,100342.72
2023-01-13T18:12:21.356Z,100349.53
2023-01-13T18:15:23.290Z,100335.91
2023-01-13T18:18:24.634Z,100341.31
2023-01-13T18:21:44.756Z,100347.31
2023-01-13T18:25:05.469Z,100340.25
2023-01-13T18:28:08.038Z,100349.13
2023-01-13T18:31:10.127Z,100354.44
2023-01-13T18:34:13.192Z,100348.44
2023-01-13T18:37:16.209Z,100355.38
2023-01-13T18:40:19.000Z,100354.56
2023-01-13T18:43:21.642Z,100364.66
2023-01-13T18:46:23.811Z,100375.84
2023-01-13T18:49:26.552Z,100380.25
2023-01-13T18:52:28.491Z,100386.41
2023-01-13T18:55:31.094Z,100376.75
2023-01-13T18:58:32.664Z,100390.97
2023-01-13T19:01:38.339Z,100385.97
2023-01-13T19:04:41.353Z,100392.09
2023-01-13T19:07:51.021Z,100390.19
2023-01-13T19:10:52.383Z,100391.91
2023-01-13T19:13:55.259Z,100396.78
2023-01-13T19:16:58.553Z,100410.03
2023-01-13T19:20:01.255Z,100399.75
2023-01-13T19:23:02.842Z,100404.00
2023-01-13T19:26:07.353Z,100408.00
2023-01-13T19:29:08.803Z,100408.00
2023-01-13T19:32:12.911Z,100410.94
2023-01-13T19:35:18.258Z,100417.81
2023-01-13T19:38:19.892Z,100412.00
2023-01-13T19:41:40.744Z,100421.13
2023-01-13T19:45:00.112Z,100434.59
2023-01-13T19:48:05.738Z,100446.88
2023-01-13T19:51:07.373Z,100445.44
2023-01-13T19:54:09.947Z,100431.59
2023-01-13T19:57:11.816Z,100449.09
2023-01-13T20:00:21.029Z,100450.56
2023-01-13T20:03:26.703Z,100450.25
2023-01-13T20:06:29.410Z,100458.97
2023-01-13T20:09:31.907Z,100447.75
2023-01-13T20:12:34.452Z,100447.94
2023-01-13T20:15:37.346Z,100467.31
2023-01-13T20:18:41.614Z,100480.56
2023-01-13T20:21:43.464Z,100475.44
2023-01-13T20:24:46.447Z,100501.09
2023-01-13T20:27:48.159Z,100489.56
2023-01-13T20:30:51.001Z,100482.28
2023-01-13T20:33:53.282Z,100495.06
2023-01-13T20:36:55.873Z,100497.06
2023-01-13T20:40:01.876Z,100484.81
2023-01-13T20:43:04.546Z,100492.56
2023-01-13T20:46:07.361Z,100501.88
2023-01-13T20:49:12.632Z,100499.28
2023-01-13T20:52:14.000Z,100510.72
2023-01-13T20:55:16.572Z,100512.72
2023-01-13T20:58:17.895Z,100509.06
2023-01-13T21:01:23.392Z,100499.22
2023-01-13T21:04:27.002Z,100512.16
2023-01-13T21:07:28.306Z,100513.38
2023-01-13T21:10:29.900Z,100514.13
2023-01-13T21:13:50.809Z,100521.50
2023-01-13T21:16:52.117Z,100524.56
2023-01-13T21:19:55.087Z,100527.13
2023-01-13T21:22:56.729Z,100534.09
2023-01-13T21:26:01.418Z,100527.75
2023-01-13T21:29:03.497Z,100546.84
2023-01-13T21:32:06.896Z,100544.69
2023-01-13T21:35:10.988Z,100546.28
2023-01-13T21:38:14.294Z,100535.59
2023-01-13T21:41:36.849Z,100534.19
2023-01-13T21:44:56.457Z,100526.56
2023-01-13T21:47:59.063Z,100545.94
2023-01-13T21:51:01.031Z,100542.47
2023-01-13T21:54:03.843Z,100546.47
2023-01-13T21:57:05.105Z,100541.97
2023-01-13T22:00:09.463Z,100551.00
2023-01-13T22:03:14.465Z,100554.66
2023-01-13T22:06:16.763Z,100552.38
2023-01-13T22:09:19.372Z,100554.47
2023-01-13T22:12:23.322Z,100551.56
2023-01-13T22:15:27.536Z,100561.59
2023-01-13T22:18:28.846Z,100560.94
2023-01-13T22:21:32.365Z,100557.13
2023-01-13T22:24:35.256Z,100562.81
2023-01-13T22:27:41.244Z,100559.75
2023-01-13T22:30:42.525Z,100566.16
2023-01-13T22:33:47.502Z,100577.41
2023-01-13T22:36:49.554Z,100579.47
2023-01-13T22:39:52.206Z,100590.28
2023-01-13T22:42:53.486Z,100597.94
2023-01-13T22:45:59.817Z,100594.16
2023-01-13T22:49:01.478Z,100596.81
2023-01-13T22:52:06.368Z,100596.50
2023-01-13T22:55:09.492Z,100600.50
2023-01-13T22:58:10.839Z,100607.56
2023-01-13T23:01:17.685Z,100615.06
2023-01-13T23:04:19.452Z,100615.38
2023-01-13T23:07:22.896Z,100629.44
2023-01-13T23:10:24.219Z,100622.56
2023-01-13T23:13:26.813Z,100627.38
2023-01-13T23:16:29.676Z,100633.44
2023-01-13T23:19:32.909Z,100639.91
2023-01-13T23:22:37.811Z,100634.06
2023-01-13T23:25:41.127Z,100634.69
2023-01-13T23:28:43.697Z,100643.47
2023-01-13T23:31:46.239Z,100637.53
2023-01-13T23:34:48.828Z,100646.13
2023-01-13T23:37:52.043Z,100645.81
2023-01-13T23:40:54.882Z,100647.16
2023-01-13T23:43:59.372Z,100648.75
2023-01-13T23:47:00.855Z,100642.94
2023-01-13T23:50:03.445Z,100646.84
2023-01-13T23:56:29.521Z,100655.72
2023-01-13T23:59:32.052Z,100657.56
